Time;durP1;ratioP1;P1;durP2;ratioP2;P2;SDS_P1;SDS_P2;PMS_P1;PMS_P2;Temp;Humidity;BMP_temperature;BMP_pressure;BME280_temperature;BME280_humidity;BME280_pressure;Samples;Min_cycle;Max_cycle;Signal;HPM_P1;HPM_P2
2022/01/12 00:00:56;;;;;;;17.88;8.18;;;-1.20;99.90;;;;;;4956644;28;20392;-72
2022/01/12 00:03:23;;;;;;;18.30;8.60;;;-1.20;99.90;;;;;;4955221;28;20448;-71
2022/01/12 00:05:49;;;;;;;14.40;7.70;;;-1.20;99.90;;;;;;4960112;28;20045;-71
2022/01/12 00:08:15;;;;;;;14.27;7.47;;;-1.30;99.90;;;;;;4951607;28;20059;-70
2022/01/12 00:10:41;;;;;;;13.48;7.38;;;-1.30;99.90;;;;;;4968778;28;20066;-68
2022/01/12 00:13:06;;;;;;;18.40;8.45;;;-1.30;99.90;;;;;;4953259;28;20488;-69
2022/01/12 00:15:32;;;;;;;14.38;7.40;;;-1.30;99.90;;;;;;4957889;28;20046;-70
2022/01/12 00:17:58;;;;;;;17.08;7.75;;;-1.30;99.90;;;;;;4958012;28;20499;-70
2022/01/12 00:20:23;;;;;;;14.82;7.70;;;-1.40;99.90;;;;;;4953271;28;20023;-70
2022/01/12 00:22:53;;;;;;;12.35;7.00;;;-1.40;99.90;;;;;;4956443;28;20027;-72
2022/01/12 00:33:21;;;;;;;13.82;7.88;;;-1.50;99.90;;;;;;4955307;28;20089;-70
2022/01/12 00:35:55;;;;;;;16.25;8.55;;;-1.60;99.90;;;;;;4953206;28;20081;-69
2022/01/12 00:38:23;;;;;;;17.73;8.00;;;-1.60;99.90;;;;;;4956401;28;20019;-71
2022/01/12 00:40:55;;;;;;;14.40;8.07;;;-1.60;99.90;;;;;;4955280;28;20411;-69
2022/01/12 00:43:23;;;;;;;15.98;7.68;;;-1.50;99.90;;;;;;4955591;28;20370;-70
2022/01/12 00:45:49;;;;;;;14.55;7.18;;;-1.50;99.90;;;;;;4954235;28;20031;-69
2022/01/12 00:48:17;;;;;;;15.68;7.10;;;-1.60;99.90;;;;;;4957369;28;20558;-70
2022/01/12 00:50:44;;;;;;;12.57;6.80;;;-1.60;99.90;;;;;;4956739;28;20035;-70
2022/01/12 00:53:10;;;;;;;14.43;7.28;;;-1.70;99.90;;;;;;4954559;28;20567;-69
2022/01/12 00:55:37;;;;;;;14.88;7.38;;;-1.70;99.90;;;;;;4953217;28;20028;-71
2022/01/12 00:58:03;;;;;;;12.95;6.90;;;-1.70;99.90;;;;;;4957107;28;20450;-71
2022/01/12 01:00:30;;;;;;;14.52;7.28;;;-1.70;99.90;;;;;;4969231;28;20028;-69
2022/01/12 01:02:56;;;;;;;16.75;8.18;;;-1.60;99.90;;;;;;4958731;28;20034;-70
2022/01/12 01:05:24;;;;;;;16.50;7.63;;;-1.60;99.90;;;;;;4973536;28;20067;-69
2022/01/12 01:07:51;;;;;;;14.65;6.80;;;-1.60;99.90;;;;;;4961435;28;20544;-71
2022/01/12 01:10:29;;;;;;;14.48;7.20;;;-1.70;99.90;;;;;;4960194;28;20023;-69
2022/01/12 01:12:58;;;;;;;16.30;7.60;;;-1.70;99.90;;;;;;4957823;28;20028;-70
2022/01/12 01:15:42;;;;;;;16.15;7.72;;;-1.70;99.90;;;;;;4954490;28;20114;-71
2022/01/12 01:26:28;;;;;;;15.10;8.10;;;-1.70;99.90;;;;;;4963297;28;20078;-72
2022/01/12 01:28:54;;;;;;;17.55;8.27;;;-1.70;99.90;;;;;;4957701;28;20494;-72
2022/01/12 01:31:27;;;;;;;15.85;8.82;;;-1.70;99.90;;;;;;4964398;28;20117;-73
2022/01/12 01:33:53;;;;;;;17.60;8.73;;;-1.70;99.90;;;;;;4955024;28;20582;-73
2022/01/12 01:36:19;;;;;;;16.70;8.60;;;-1.70;99.90;;;;;;4961567;28;20069;-73
2022/01/12 01:38:45;;;;;;;16.55;8.23;;;-1.70;99.90;;;;;;4958103;28;20105;-72
2022/01/12 01:41:11;;;;;;;14.63;8.70;;;-1.70;99.90;;;;;;4971352;28;20499;-72
2022/01/12 01:44:04;;;;;;;14.88;8.43;;;-1.70;99.90;;;;;;4972094;28;20118;-72
2022/01/12 01:54:40;;;;;;;17.52;9.13;;;-1.70;99.90;;;;;;4917355;28;20039;-72
2022/01/12 01:57:06;;;;;;;17.25;9.10;;;-1.80;99.90;;;;;;4960792;28;20162;-72
2022/01/12 01:59:32;;;;;;;17.20;9.43;;;-1.80;99.90;;;;;;4954190;28;20035;-72
2022/01/12 02:01:58;;;;;;;15.43;9.13;;;-1.80;99.90;;;;;;4961144;28;20118;-69
2022/01/12 02:04:24;;;;;;;15.43;9.02;;;-1.70;99.90;;;;;;4956275;28;20038;-69
2022/01/12 02:06:54;;;;;;;19.83;9.10;;;-1.70;99.90;;;;;;4965753;28;20027;-69
2022/01/12 02:09:20;;;;;;;17.35;9.20;;;-1.70;99.90;;;;;;4959730;28;20058;-69
2022/01/12 02:11:55;;;;;;;14.10;8.50;;;-1.70;99.90;;;;;;4963173;28;20083;-69
2022/01/12 02:14:21;;;;;;;16.35;9.23;;;-1.70;99.90;;;;;;4956889;28;20392;-70
2022/01/12 02:17:12;;;;;;;20.05;9.68;;;-1.60;99.90;;;;;;4966518;28;20122;-69
2022/01/12 02:19:47;;;;;;;16.75;8.88;;;-1.60;99.90;;;;;;4952707;28;20027;-69
2022/01/12 02:36:14;;;;;;;17.13;8.75;;;-1.50;99.90;;;;;;4960487;28;20042;-70
2022/01/12 02:41:27;;;;;;;17.90;8.98;;;-1.50;99.90;;;;;;4958159;28;21093;-70
2022/01/12 02:55:06;;;;;;;17.13;9.43;;;-1.70;99.90;;;;;;4952207;28;20324;-70
2022/01/12 02:57:32;;;;;;;17.08;9.13;;;-1.70;99.90;;;;;;4963009;28;20525;-70
2022/01/12 03:00:05;;;;;;;18.48;9.43;;;-1.70;99.90;;;;;;4966656;28;20408;-70
2022/01/12 03:07:30;;;;;;;19.70;9.05;;;-1.80;99.90;;;;;;4959457;28;20043;-70
2022/01/12 03:09:56;;;;;;;17.45;8.40;;;-1.80;99.90;;;;;;4950027;28;20027;-70
2022/01/12 03:12:22;;;;;;;18.98;9.45;;;-1.80;99.90;;;;;;4954861;28;20539;-71
2022/01/12 03:14:48;;;;;;;17.08;9.50;;;-1.80;99.90;;;;;;4952132;28;20062;-70
2022/01/12 03:17:15;;;;;;;18.95;10.13;;;-1.80;99.90;;;;;;4959655;28;20031;-70
2022/01/12 03:19:44;;;;;;;16.52;9.52;;;-1.80;99.90;;;;;;4966198;28;20027;-70
2022/01/12 03:22:13;;;;;;;17.95;8.70;;;-1.80;99.90;;;;;;4975441;28;20296;-70
2022/01/12 03:24:39;;;;;;;16.30;9.10;;;-1.80;99.90;;;;;;4960649;28;20460;-70
2022/01/12 03:27:06;;;;;;;16.45;9.88;;;-1.80;99.90;;;;;;4974684;28;20027;-72
2022/01/12 03:29:32;;;;;;;18.38;8.50;;;-1.80;99.90;;;;;;4952807;28;20046;-72
2022/01/12 03:32:00;;;;;;;14.82;7.95;;;-1.80;99.90;;;;;;4955589;28;20480;-72
2022/01/12 03:34:32;;;;;;;17.63;9.48;;;-1.80;99.90;;;;;;4956759;28;20436;-72
2022/01/12 03:39:43;;;;;;;14.40;7.85;;;-1.80;99.90;;;;;;4952851;28;20031;-72
2022/01/12 03:42:12;;;;;;;15.27;9.07;;;-1.80;99.90;;;;;;4966393;28;20073;-72
2022/01/12 03:44:38;;;;;;;14.77;8.30;;;-1.80;99.90;;;;;;4955912;28;20027;-69
2022/01/12 03:47:04;;;;;;;14.93;7.88;;;-1.90;99.90;;;;;;4964763;28;20041;-69
2022/01/12 03:49:30;;;;;;;14.98;8.80;;;-1.90;99.90;;;;;;4959009;28;20127;-69
2022/01/12 03:51:55;;;;;;;14.90;7.95;;;-1.90;99.90;;;;;;4974812;23;20043;-73
2022/01/12 03:54:27;;;;;;;17.08;8.23;;;-2.00;99.90;;;;;;4968797;28;20534;-74
2022/01/12 03:56:52;;;;;;;14.38;8.45;;;-2.00;99.90;;;;;;4975424;28;20102;-73
2022/01/12 03:59:18;;;;;;;15.23;7.68;;;-1.90;99.90;;;;;;4970665;28;20651;-73
2022/01/12 04:01:46;;;;;;;13.57;7.57;;;-1.80;99.90;;;;;;4966523;28;20375;-73
2022/01/12 04:04:20;;;;;;;15.15;8.25;;;-1.80;99.90;;;;;;4957154;28;20031;-73
2022/01/12 04:09:30;;;;;;;15.77;8.25;;;-1.80;99.90;;;;;;4955279;28;20050;-74
2022/01/12 04:11:56;;;;;;;14.52;7.85;;;-1.70;99.90;;;;;;4954710;28;20027;-74
2022/01/12 04:14:22;;;;;;;16.73;8.10;;;-1.70;99.90;;;;;;4955266;28;20082;-74
2022/01/12 04:16:47;;;;;;;16.92;8.30;;;-1.70;99.90;;;;;;4957269;28;20102;-74
2022/01/12 04:19:13;;;;;;;13.50;7.30;;;-1.70;99.90;;;;;;4941882;28;20022;-74
2022/01/12 04:21:46;;;;;;;15.23;8.10;;;-1.60;99.90;;;;;;4964753;28;20023;-74
2022/01/12 04:24:13;;;;;;;15.20;7.60;;;-1.60;99.90;;;;;;4954388;28;20008;-74
2022/01/12 04:26:39;;;;;;;14.50;7.00;;;-1.50;99.90;;;;;;4958905;28;20023;-74
2022/01/12 04:29:06;;;;;;;15.15;7.50;;;-1.50;99.90;;;;;;4959780;28;20033;-74
2022/01/12 04:31:36;;;;;;;13.50;7.13;;;-1.50;99.90;;;;;;4953132;28;20487;-74
2022/01/12 04:34:05;;;;;;;14.27;7.30;;;-1.40;99.90;;;;;;4959008;28;20109;-73
2022/01/12 04:36:32;;;;;;;13.70;7.65;;;-1.40;99.90;;;;;;4959316;28;20082;-75
2022/01/12 04:38:57;;;;;;;12.32;7.03;;;-1.30;99.90;;;;;;4956888;28;20032;-74
2022/01/12 04:41:24;;;;;;;12.60;7.65;;;-1.30;99.90;;;;;;4961215;28;20035;-75
2022/01/12 04:43:53;;;;;;;13.48;6.68;;;-1.30;99.90;;;;;;4958006;28;20031;-75
2022/01/12 04:49:47;;;;;;;11.98;7.03;;;-1.30;99.90;;;;;;4937746;28;20062;-75
2022/01/12 04:52:13;;;;;;;14.15;7.28;;;-1.30;99.90;;;;;;4957155;28;20479;-75
2022/01/12 04:54:38;;;;;;;12.95;7.85;;;-1.30;99.90;;;;;;4949261;28;20085;-75
2022/01/12 04:57:04;;;;;;;10.95;6.53;;;-1.40;99.90;;;;;;4935469;28;20023;-74
2022/01/12 04:59:42;;;;;;;11.95;7.32;;;-1.40;99.90;;;;;;4956088;28;20090;-75
2022/01/12 05:06:23;;;;;;;14.32;7.38;;;-1.40;99.90;;;;;;4957766;28;20475;-75
2022/01/12 05:07:46;;;;;;;16.13;7.95;;;-1.40;99.90;;;;;;4954072;28;20050;-74
2022/01/12 05:13:01;;;;;;;16.70;8.65;;;-1.50;99.90;;;;;;4953320;28;20066;-74
2022/01/12 05:15:33;;;;;;;16.75;8.73;;;-1.60;99.90;;;;;;4957744;28;20124;-75
2022/01/12 05:18:00;;;;;;;15.18;8.38;;;-1.60;99.90;;;;;;4940178;28;20058;-75
2022/01/12 05:20:26;;;;;;;15.15;8.57;;;-1.70;99.90;;;;;;4938076;28;20039;-73
2022/01/12 05:22:51;;;;;;;17.17;8.77;;;-1.70;99.90;;;;;;4954979;28;20378;-74
2022/01/12 05:25:23;;;;;;;14.60;8.88;;;-1.80;99.90;;;;;;4950962;28;20395;-73
2022/01/12 05:27:49;;;;;;;18.73;9.10;;;-1.80;99.90;;;;;;4951905;28;24815;-74
2022/01/12 05:30:14;;;;;;;18.90;10.07;;;-1.90;99.90;;;;;;4936242;28;20360;-74
2022/01/12 05:32:41;;;;;;;24.38;10.70;;;-1.90;99.90;;;;;;4960788;28;20038;-75
2022/01/12 05:35:09;;;;;;;21.02;11.52;;;-1.90;99.90;;;;;;4954598;28;20042;-64
2022/01/12 05:37:34;;;;;;;24.48;12.43;;;-1.90;99.90;;;;;;4956930;28;20023;-63
2022/01/12 05:40:01;;;;;;;19.38;9.45;;;-1.80;99.90;;;;;;4959455;28;20027;-64
2022/01/12 05:42:27;;;;;;;18.20;9.70;;;-1.70;99.90;;;;;;4955316;28;20093;-64
2022/01/12 05:44:53;;;;;;;17.52;8.93;;;-1.60;99.90;;;;;;4953115;28;20027;-65
2022/01/12 05:47:36;;;;;;;17.35;8.95;;;-1.40;99.90;;;;;;4953937;28;20031;-75
2022/01/12 05:50:02;;;;;;;15.50;8.68;;;-1.30;99.90;;;;;;4938569;28;20134;-75
2022/01/12 05:52:28;;;;;;;19.20;9.45;;;-1.30;99.90;;;;;;4953305;28;20043;-76
2022/01/12 05:54:53;;;;;;;14.93;8.32;;;-1.30;99.90;;;;;;4955887;28;20435;-76
2022/01/12 05:57:19;;;;;;;14.77;8.50;;;-1.40;99.90;;;;;;4962542;28;20111;-76
2022/01/12 05:59:45;;;;;;;15.02;8.43;;;-1.40;99.90;;;;;;4963195;28;20467;-74
2022/01/12 06:02:10;;;;;;;15.07;7.80;;;-1.50;99.90;;;;;;4956168;28;20027;-75
2022/01/12 06:04:36;;;;;;;15.73;8.32;;;-1.50;99.90;;;;;;4963664;28;20312;-74
2022/01/12 06:07:02;;;;;;;15.43;8.35;;;-1.50;99.90;;;;;;4967841;28;20081;-75
2022/01/12 06:09:28;;;;;;;17.42;9.70;;;-1.60;99.90;;;;;;4935423;28;20519;-75
2022/01/12 06:11:53;;;;;;;16.88;8.93;;;-1.60;99.90;;;;;;4943419;28;20067;-73
2022/01/12 06:14:20;;;;;;;15.68;8.65;;;-1.60;99.90;;;;;;4949448;28;20105;-74
2022/01/12 06:16:46;;;;;;;15.55;8.88;;;-1.70;99.90;;;;;;4949309;28;20511;-74
2022/01/12 06:19:12;;;;;;;17.38;9.07;;;-1.70;99.90;;;;;;4935031;28;20106;-73
2022/01/12 06:21:38;;;;;;;19.17;8.77;;;-1.70;99.90;;;;;;4951985;28;20053;-73
2022/01/12 06:24:04;;;;;;;19.52;10.25;;;-1.70;99.90;;;;;;4953975;28;20387;-74
2022/01/12 06:26:30;;;;;;;15.25;8.80;;;-1.80;99.90;;;;;;4950721;28;20042;-74
2022/01/12 06:31:37;;;;;;;17.83;9.52;;;-1.80;99.90;;;;;;4948138;28;20036;-74
2022/01/12 06:34:03;;;;;;;17.55;8.60;;;-1.80;99.90;;;;;;4948637;28;20440;-74
2022/01/12 06:36:29;;;;;;;16.35;8.88;;;-1.80;99.90;;;;;;4952948;28;20022;-74
2022/01/12 06:38:55;;;;;;;16.77;9.68;;;-1.80;99.90;;;;;;4934228;28;20054;-76
2022/01/12 06:41:21;;;;;;;17.15;9.18;;;-1.80;99.90;;;;;;4935232;28;20034;-76
2022/01/12 06:43:47;;;;;;;18.15;9.40;;;-1.80;99.90;;;;;;4949561;28;20027;-76
2022/01/12 06:46:22;;;;;;;19.52;10.05;;;-1.90;99.90;;;;;;4948697;28;20028;-77
2022/01/12 06:48:49;;;;;;;21.70;10.65;;;-1.90;99.90;;;;;;4937184;28;20097;-77
2022/01/12 06:51:15;;;;;;;18.67;9.82;;;-1.90;99.90;;;;;;4930580;28;20402;-76
2022/01/12 06:53:40;;;;;;;17.95;10.02;;;-2.00;99.90;;;;;;4947541;28;20034;-75
2022/01/12 06:56:08;;;;;;;36.40;16.38;;;-1.90;99.90;;;;;;4955194;28;20037;-76
2022/01/12 06:58:34;;;;;;;20.98;11.25;;;-1.90;99.90;;;;;;4951638;28;20024;-76
2022/01/12 07:01:00;;;;;;;18.83;9.10;;;-2.00;99.90;;;;;;4943708;28;20487;-76
2022/01/12 07:03:25;;;;;;;19.48;9.90;;;-2.00;99.90;;;;;;4951657;28;20031;-77
2022/01/12 07:05:51;;;;;;;17.52;9.50;;;-2.00;99.90;;;;;;4928578;28;20118;-76
2022/01/12 07:08:17;;;;;;;25.27;11.70;;;-2.00;99.90;;;;;;4935918;28;20038;-75
2022/01/12 07:10:43;;;;;;;21.70;12.07;;;-2.00;99.90;;;;;;4953953;28;20027;-75
2022/01/12 07:13:10;;;;;;;25.75;11.35;;;-2.10;99.90;;;;;;4961305;28;20389;-75
2022/01/12 07:15:37;;;;;;;20.70;10.30;;;-2.10;99.90;;;;;;4936893;28;20081;-74
2022/01/12 07:18:04;;;;;;;21.65;11.48;;;-2.30;99.90;;;;;;4931391;28;20566;-74
2022/01/12 07:20:30;;;;;;;19.85;10.63;;;-2.30;99.90;;;;;;4947248;28;20459;-73
2022/01/12 07:22:55;;;;;;;23.25;12.00;;;-2.50;99.90;;;;;;4953334;28;20030;-73
2022/01/12 07:25:21;;;;;;;22.33;11.43;;;-2.50;99.90;;;;;;4955069;28;20110;-73
2022/01/12 07:27:47;;;;;;;22.50;11.68;;;-2.50;99.90;;;;;;4955518;28;20032;-73
2022/01/12 07:30:13;;;;;;;23.85;11.32;;;-2.50;99.90;;;;;;4938286;29;20044;-74
2022/01/12 07:32:39;;;;;;;19.70;9.88;;;-2.50;99.90;;;;;;4938828;28;20027;-74
2022/01/12 07:35:06;;;;;;;19.00;9.88;;;-2.50;99.90;;;;;;4963864;28;20475;-73
2022/01/12 07:37:32;;;;;;;21.23;10.57;;;-2.40;99.90;;;;;;4949756;28;20036;-73
2022/01/12 07:39:58;;;;;;;19.92;9.73;;;-2.40;99.90;;;;;;4928963;28;20141;-73
2022/01/12 07:42:24;;;;;;;18.60;9.60;;;-2.40;99.90;;;;;;4935457;28;20198;-73
2022/01/12 07:44:50;;;;;;;17.33;8.60;;;-2.30;99.90;;;;;;4954655;28;20023;-73
2022/01/12 07:47:16;;;;;;;18.13;9.52;;;-2.30;99.90;;;;;;4943462;28;20039;-73
2022/01/12 07:49:41;;;;;;;19.88;9.73;;;-2.30;99.90;;;;;;4939161;28;20027;-72
2022/01/12 07:52:07;;;;;;;20.80;10.07;;;-2.20;99.90;;;;;;4951184;28;20026;-72
2022/01/12 07:54:33;;;;;;;21.15;10.32;;;-2.10;99.90;;;;;;4942395;28;20037;-73
2022/01/12 07:56:58;;;;;;;18.85;9.45;;;-2.10;99.90;;;;;;4953831;28;20027;-73
2022/01/12 07:59:25;;;;;;;19.92;10.23;;;-2.00;99.90;;;;;;4958263;28;20114;-73
2022/01/12 08:01:50;;;;;;;17.58;9.55;;;-2.00;99.90;;;;;;4959189;28;20031;-73
2022/01/12 08:04:19;;;;;;;15.80;9.02;;;-1.90;99.90;;;;;;4964428;28;20394;-73
2022/01/12 08:06:45;;;;;;;16.85;9.63;;;-1.90;99.90;;;;;;4959971;28;20023;-73
2022/01/12 08:09:10;;;;;;;18.60;9.75;;;-1.90;99.90;;;;;;4960201;28;20391;-74
2022/01/12 08:11:36;;;;;;;19.35;10.20;;;-1.80;99.90;;;;;;4956229;28;20071;-73
2022/01/12 08:14:02;;;;;;;22.77;11.57;;;-1.80;99.90;;;;;;4960477;28;20019;-73
2022/01/12 08:16:28;;;;;;;21.17;10.30;;;-1.80;99.90;;;;;;4966643;28;20498;-73
2022/01/12 08:18:55;;;;;;;21.23;11.68;;;-1.70;99.90;;;;;;4956105;28;20616;-73
2022/01/12 08:21:21;;;;;;;21.60;11.35;;;-1.70;99.90;;;;;;4956667;28;20025;-73
2022/01/12 08:23:47;;;;;;;21.42;11.15;;;-1.60;99.90;;;;;;4944067;29;20027;-73
2022/01/12 08:26:13;;;;;;;22.05;11.52;;;-1.60;99.90;;;;;;4961632;28;20105;-73
2022/01/12 08:28:38;;;;;;;16.63;9.32;;;-1.50;99.90;;;;;;4936537;28;20034;-73
2022/01/12 08:31:04;;;;;;;20.55;10.13;;;-1.40;99.90;;;;;;4962464;28;20102;-73
2022/01/12 08:33:30;;;;;;;18.88;10.45;;;-1.40;99.90;;;;;;4951189;28;20078;-73
2022/01/12 08:35:55;;;;;;;19.02;9.90;;;-1.30;99.90;;;;;;4954921;28;20038;-73
2022/01/12 08:38:21;;;;;;;18.10;10.35;;;-1.20;99.90;;;;;;4955668;28;20027;-73
2022/01/12 08:40:47;;;;;;;21.00;10.55;;;-1.10;99.90;;;;;;4958896;28;20069;-71
2022/01/12 08:43:13;;;;;;;21.38;11.25;;;-1.10;99.90;;;;;;4952588;28;20325;-73
2022/01/12 08:45:39;;;;;;;21.40;9.88;;;-1.00;99.90;;;;;;4954412;28;20042;-75
2022/01/12 08:48:08;;;;;;;24.70;12.73;;;-0.90;99.90;;;;;;4973150;28;20462;-74
2022/01/12 08:50:34;;;;;;;23.38;12.05;;;-0.80;99.90;;;;;;4962174;28;20449;-75
2022/01/12 08:53:00;;;;;;;20.08;11.13;;;-0.80;99.90;;;;;;4962106;28;20089;-74
2022/01/12 08:55:29;;;;;;;19.55;11.23;;;-0.70;99.90;;;;;;4946452;29;20035;-74
2022/01/12 08:57:58;;;;;;;21.13;10.90;;;-0.70;99.90;;;;;;4955327;28;20028;-73
2022/01/12 09:00:25;;;;;;;21.85;11.07;;;-0.50;99.90;;;;;;4957086;28;20038;-73
2022/01/12 09:02:51;;;;;;;19.50;10.18;;;-0.50;99.90;;;;;;4961087;28;20084;-73
2022/01/12 09:05:17;;;;;;;19.77;10.23;;;-0.40;99.90;;;;;;4949784;28;20028;-73
2022/01/12 09:07:43;;;;;;;17.90;9.80;;;-0.40;99.90;;;;;;4960573;28;20045;-73
2022/01/12 09:10:09;;;;;;;17.58;9.80;;;-0.30;99.90;;;;;;4965541;28;20456;-73
2022/01/12 09:12:39;;;;;;;17.58;9.98;;;-0.30;99.90;;;;;;4941095;28;20031;-74
2022/01/12 09:15:09;;;;;;;16.02;9.15;;;-0.20;99.90;;;;;;4951686;28;20491;-73
2022/01/12 09:17:35;;;;;;;16.88;9.63;;;-0.20;99.90;;;;;;4960830;28;20051;-74
2022/01/12 09:20:02;;;;;;;21.45;10.50;;;-0.20;99.90;;;;;;4942093;28;20357;-74
2022/01/12 09:22:28;;;;;;;18.98;10.93;;;-0.20;99.90;;;;;;4955115;28;20098;-74
2022/01/12 09:24:54;;;;;;;18.77;9.85;;;-0.10;99.90;;;;;;4935456;28;20031;-74
2022/01/12 09:27:20;;;;;;;18.55;10.00;;;-0.10;99.90;;;;;;4954882;28;20030;-74
2022/01/12 09:29:46;;;;;;;20.27;10.20;;;-0.10;99.90;;;;;;4960937;28;20034;-73
2022/01/12 09:32:12;;;;;;;19.13;10.73;;;0.00;99.90;;;;;;4936994;28;20038;-75
2022/01/12 09:34:38;;;;;;;20.02;10.80;;;0.00;99.90;;;;;;4939316;28;20036;-74
2022/01/12 09:37:05;;;;;;;19.00;10.70;;;0.10;99.90;;;;;;4959287;28;20074;-73
2022/01/12 09:39:32;;;;;;;17.30;10.18;;;0.00;99.90;;;;;;4955436;28;20058;-72
2022/01/12 09:41:58;;;;;;;17.35;10.23;;;0.00;99.90;;;;;;4951292;28;20031;-73
2022/01/12 09:44:37;;;;;;;16.10;9.65;;;0.00;99.90;;;;;;4935132;28;20031;-72
2022/01/12 09:47:05;;;;;;;17.35;9.38;;;-0.10;99.90;;;;;;4936777;28;20087;-72
2022/01/12 09:49:31;;;;;;;16.90;10.18;;;-0.10;99.90;;;;;;4943192;28;20554;-73
2022/01/12 09:51:58;;;;;;;15.95;9.88;;;-0.10;99.90;;;;;;4965927;23;20019;-68
2022/01/12 09:54:25;;;;;;;22.77;10.80;;;-0.10;99.90;;;;;;4994848;28;20026;-67
2022/01/12 09:56:51;;;;;;;17.33;10.48;;;-0.10;99.90;;;;;;4995950;28;20441;-67
2022/01/12 09:59:21;;;;;;;23.50;13.07;;;-0.10;99.90;;;;;;5017803;28;20088;-67
2022/01/12 10:01:51;;;;;;;22.27;11.77;;;-0.10;99.90;;;;;;5009192;28;20117;-68
2022/01/12 10:04:18;;;;;;;23.45;12.60;;;-0.20;99.90;;;;;;4983536;28;20472;-68
2022/01/12 10:06:50;;;;;;;23.55;12.07;;;-0.30;99.90;;;;;;5000798;28;20044;-68
2022/01/12 10:09:17;;;;;;;22.20;11.45;;;-0.30;99.90;;;;;;4973528;28;20018;-70
2022/01/12 10:11:57;;;;;;;22.20;11.75;;;-0.40;99.90;;;;;;4981517;28;20069;-69
2022/01/12 10:14:24;;;;;;;31.00;11.77;;;-0.30;99.90;;;;;;4980731;28;20049;-69
2022/01/12 10:16:55;;;;;;;22.75;11.50;;;-0.30;99.90;;;;;;4996257;28;20081;-69
2022/01/12 10:19:30;;;;;;;19.35;11.45;;;-0.30;99.90;;;;;;4994149;28;20033;-68
2022/01/12 10:21:58;;;;;;;19.80;11.35;;;-0.20;99.90;;;;;;4988924;28;20491;-67
2022/01/12 10:24:24;;;;;;;22.27;11.48;;;-0.10;99.90;;;;;;4975766;28;20033;-68
2022/01/12 10:26:51;;;;;;;23.05;12.20;;;0.00;99.90;;;;;;5002332;28;20030;-68
2022/01/12 10:29:28;;;;;;;21.63;11.68;;;0.10;99.90;;;;;;4984762;28;20509;-69
2022/01/12 10:32:03;;;;;;;18.98;10.27;;;0.20;99.90;;;;;;4990711;28;20364;-69
2022/01/12 10:34:36;;;;;;;21.80;11.52;;;0.30;99.90;;;;;;4979477;28;20097;-69
2022/01/12 10:37:09;;;;;;;18.85;11.30;;;0.30;99.90;;;;;;4991657;28;20015;-69
2022/01/12 10:39:39;;;;;;;;;;;0.40;99.90;;;;;;4979930;28;20023;-70
2022/01/12 10:42:08;;;;;;;20.40;10.88;;;0.50;99.90;;;;;;4991487;28;20020;-70
2022/01/12 10:44:37;;;;;;;18.65;11.57;;;0.50;99.90;;;;;;4981320;28;20030;-69
2022/01/12 10:47:07;;;;;;;21.10;11.82;;;0.60;99.90;;;;;;4989474;28;20026;-69
2022/01/12 10:49:36;;;;;;;21.48;11.55;;;0.60;99.90;;;;;;4993698;28;20026;-70
2022/01/12 10:52:05;;;;;;;20.40;11.07;;;0.60;99.90;;;;;;5011231;28;20042;-70
2022/01/12 10:54:41;;;;;;;20.98;10.50;;;0.60;99.90;;;;;;4993327;28;20132;-69
2022/01/12 10:57:34;;;;;;;21.10;11.00;;;0.60;99.90;;;;;;4992891;28;20033;-70
2022/01/12 11:00:00;;;;;;;19.63;11.65;;;0.60;99.90;;;;;;4998788;28;20026;-69
2022/01/12 11:02:29;;;;;;;18.38;11.10;;;0.60;99.90;;;;;;4985142;28;20019;-70
2022/01/12 11:04:57;;;;;;;21.00;11.85;;;0.60;99.90;;;;;;4994418;28;20025;-70
2022/01/12 11:07:25;;;;;;;20.83;11.93;;;0.60;99.90;;;;;;5002023;28;20030;-70
2022/01/12 11:09:54;;;;;;;18.05;10.52;;;0.60;99.90;;;;;;4972860;28;20033;-69
2022/01/12 11:12:20;;;;;;;19.65;11.65;;;0.60;99.90;;;;;;4975341;28;20126;-68
2022/01/12 11:14:46;;;;;;;22.27;11.48;;;0.60;99.90;;;;;;4995681;28;20172;-69
2022/01/12 11:17:12;;;;;;;22.45;12.27;;;0.60;99.90;;;;;;5002360;28;20023;-68
2022/01/12 11:19:41;;;;;;;21.42;12.15;;;0.50;99.90;;;;;;4999171;28;20113;-68
2022/01/12 11:22:24;;;;;;;19.48;11.50;;;0.60;99.90;;;;;;5000874;28;20019;-69
2022/01/12 11:24:49;;;;;;;22.67;11.70;;;0.50;99.90;;;;;;5005284;28;20026;-70
2022/01/12 11:27:23;;;;;;;19.77;10.93;;;0.50;99.90;;;;;;5012943;28;20064;-69
2022/01/12 11:29:48;;;;;;;22.77;11.05;;;0.40;99.90;;;;;;5002040;28;20467;-69
2022/01/12 11:32:22;;;;;;;20.08;10.82;;;0.40;99.90;;;;;;4994439;28;20109;-70
2022/01/12 11:35:02;;;;;;;20.58;10.85;;;0.40;99.90;;;;;;4999245;28;20045;-70
2022/01/12 11:37:28;;;;;;;16.40;9.63;;;0.40;99.90;;;;;;4993456;28;20023;-69
2022/01/12 11:39:54;;;;;;;20.27;10.40;;;0.50;99.90;;;;;;5003771;28;20042;-70
2022/01/12 11:42:33;;;;;;;17.90;9.68;;;0.50;99.90;;;;;;4987684;28;20026;-70
2022/01/12 11:44:59;;;;;;;20.17;10.15;;;0.40;99.90;;;;;;4970192;28;20062;-69
2022/01/12 11:47:27;;;;;;;21.42;10.05;;;0.40;99.90;;;;;;4992417;28;20057;-69
2022/01/12 11:49:54;;;;;;;21.42;10.65;;;0.30;99.90;;;;;;5000025;28;20026;-70
2022/01/12 11:52:26;;;;;;;19.15;10.93;;;0.40;99.90;;;;;;4973648;28;20076;-70
2022/01/12 11:55:14;;;;;;;18.77;10.15;;;0.40;99.90;;;;;;4993864;28;20053;-70
2022/01/12 11:57:45;;;;;;;19.40;10.27;;;0.40;99.90;;;;;;4998151;28;20514;-68
2022/01/12 12:00:20;;;;;;;20.10;10.82;;;0.40;99.90;;;;;;4992648;28;20471;-69
2022/01/12 12:02:49;;;;;;;21.10;10.02;;;0.50;99.90;;;;;;4997211;28;20591;-68
2022/01/12 12:05:21;;;;;;;22.60;10.85;;;0.40;99.90;;;;;;4995005;28;20402;-69
2022/01/12 12:07:48;;;;;;;20.33;10.15;;;0.50;99.90;;;;;;4982289;28;20026;-69
2022/01/12 12:10:21;;;;;;;21.08;11.00;;;0.50;99.90;;;;;;4979502;28;20081;-70
2022/01/12 12:12:47;;;;;;;23.38;11.35;;;0.60;99.90;;;;;;4999235;28;20068;-68
2022/01/12 12:15:14;;;;;;;20.02;10.60;;;0.60;99.90;;;;;;4989685;28;20113;-68
2022/01/12 12:17:41;;;;;;;20.05;10.70;;;0.60;99.90;;;;;;4989358;28;20391;-68
2022/01/12 12:20:10;;;;;;;19.52;10.30;;;0.60;99.90;;;;;;5001060;28;20087;-70
2022/01/12 12:22:40;;;;;;;22.85;11.95;;;0.70;99.90;;;;;;5000603;28;20019;-69
2022/01/12 12:25:11;;;;;;;24.02;11.55;;;0.70;99.90;;;;;;4993087;28;20541;-68
2022/01/12 12:27:42;;;;;;;20.73;11.35;;;0.70;99.90;;;;;;5001914;28;20053;-70
2022/01/12 12:30:12;;;;;;;22.50;11.43;;;0.70;99.90;;;;;;4972949;28;20031;-68
2022/01/12 12:32:47;;;;;;;19.10;10.55;;;0.70;99.90;;;;;;4989230;28;20034;-68
2022/01/12 12:35:19;;;;;;;19.13;10.45;;;0.70;99.90;;;;;;4978767;28;20030;-68
2022/01/12 12:37:51;;;;;;;19.45;11.02;;;0.70;99.90;;;;;;4979654;28;20030;-69
2022/01/12 12:40:30;;;;;;;23.65;12.77;;;0.70;99.90;;;;;;4997687;28;20033;-69
2022/01/12 12:43:06;;;;;;;22.75;12.13;;;0.70;99.90;;;;;;4968278;28;20060;-69
2022/01/12 12:45:45;;;;;;;22.15;12.48;;;0.80;99.90;;;;;;5001236;28;20530;-69
2022/01/12 12:48:20;;;;;;;22.80;11.90;;;0.80;99.90;;;;;;4996956;28;20026;-68
2022/01/12 12:50:47;;;;;;;23.65;12.27;;;0.90;99.90;;;;;;4992175;28;20030;-69
2022/01/12 12:53:13;;;;;;;22.73;12.20;;;0.90;99.90;;;;;;5001685;28;20025;-69
2022/01/12 12:55:43;;;;;;;23.13;11.70;;;0.90;99.90;;;;;;4999906;28;20034;-69
2022/01/12 12:58:09;;;;;;;20.38;11.70;;;1.00;99.90;;;;;;5002154;28;20064;-69
2022/01/12 13:00:36;;;;;;;24.48;12.77;;;1.00;99.90;;;;;;5007337;28;20069;-69
2022/01/12 13:03:04;;;;;;;23.38;10.98;;;1.00;99.90;;;;;;5002630;28;20109;-69
2022/01/12 13:05:33;;;;;;;24.98;12.98;;;1.10;99.90;;;;;;4976556;28;20038;-71
2022/01/12 13:07:59;;;;;;;24.17;12.32;;;1.10;99.90;;;;;;5008209;28;20030;-70
2022/01/12 13:10:27;;;;;;;21.92;11.77;;;1.10;99.90;;;;;;4987971;28;20520;-69
2022/01/12 13:12:59;;;;;;;25.10;12.45;;;1.20;99.90;;;;;;4990688;28;20483;-70
2022/01/12 13:15:32;;;;;;;21.60;12.05;;;1.10;99.90;;;;;;4967383;28;20035;-69
2022/01/12 13:18:03;;;;;;;21.98;12.43;;;1.10;99.90;;;;;;4985174;28;20426;-68
2022/01/12 13:23:17;;;;;;;21.55;11.95;;;1.00;99.90;;;;;;4994275;28;20106;-70
2022/01/12 13:25:43;;;;;;;21.77;11.50;;;1.00;99.90;;;;;;4999664;28;20121;-70
2022/01/12 13:28:09;;;;;;;22.80;12.77;;;1.00;99.90;;;;;;4977017;28;20029;-71
2022/01/12 13:30:45;;;;;;;26.20;12.77;;;1.00;99.90;;;;;;4996784;28;20037;-69
2022/01/12 13:33:11;;;;;;;23.08;11.48;;;1.00;99.90;;;;;;4997749;28;20491;-68
2022/01/12 13:35:37;;;;;;;25.30;13.52;;;1.00;99.90;;;;;;4972785;28;20062;-69
2022/01/12 13:38:05;;;;;;;20.85;11.35;;;1.00;99.90;;;;;;4995187;28;20022;-68
2022/01/12 13:40:37;;;;;;;20.90;12.05;;;1.10;99.90;;;;;;4969348;28;20038;-70
2022/01/12 13:43:04;;;;;;;21.42;11.07;;;1.10;99.90;;;;;;5002138;28;20030;-69
2022/01/12 13:45:38;;;;;;;19.67;11.25;;;1.20;99.90;;;;;;4997710;28;20069;-68
2022/01/12 13:48:12;;;;;;;21.05;11.45;;;1.10;99.90;;;;;;4992531;28;20038;-70
2022/01/12 13:50:38;;;;;;;23.92;11.27;;;1.20;99.90;;;;;;4995899;28;20030;-69
2022/01/12 13:53:05;;;;;;;17.92;9.93;;;1.20;99.90;;;;;;4999780;28;20439;-69
2022/01/12 13:55:32;;;;;;;21.55;9.77;;;1.20;99.90;;;;;;4994862;28;20034;-68
2022/01/12 13:58:05;;;;;;;21.75;10.77;;;1.10;99.90;;;;;;4983196;28;20117;-68